createdAt,value
2022-08-16T00:00:04.507Z,57.82
2022-08-16T00:01:07.014Z,57.94
2022-08-16T00:02:13.126Z,58.88
2022-08-16T00:03:16.814Z,58.91
2022-08-16T00:04:19.153Z,59.34
2022-08-16T00:05:24.660Z,58.54
2022-08-16T00:06:26.596Z,59.09
2022-08-16T00:07:29.891Z,59.92
2022-08-16T00:08:36.936Z,60.31
2022-08-16T00:09:38.970Z,59.71
2022-08-16T00:10:43.745Z,58.79
2022-08-16T00:11:47.384Z,59.85
2022-08-16T00:12:55.330Z,60.07
2022-08-16T00:13:57.253Z,60.04
2022-08-16T00:15:02.145Z,59.57
2022-08-16T00:17:00.777Z,60.18
2022-08-16T00:17:28.185Z,59.85
2022-08-16T00:18:31.657Z,60.56
2022-08-16T00:19:41.633Z,61.03
2022-08-16T00:20:46.130Z,59.70
2022-08-16T00:21:52.197Z,60.28
2022-08-16T00:22:56.320Z,60.64
2022-08-16T00:23:58.478Z,60.61
2022-08-16T00:25:00.687Z,60.01
2022-08-16T00:26:35.627Z,61.14
2022-08-16T00:27:24.091Z,60.95
2022-08-16T00:28:28.592Z,60.96
2022-08-16T00:29:32.798Z,61.36
2022-08-16T00:30:35.249Z,61.17
2022-08-16T00:31:58.572Z,60.52
2022-08-16T00:33:01.028Z,61.00
2022-08-16T00:34:04.645Z,61.34
2022-08-16T00:35:15.090Z,61.28
2022-08-16T00:36:17.458Z,60.77
2022-08-16T00:37:20.733Z,61.20
2022-08-16T00:38:41.172Z,61.66
2022-08-16T00:39:44.996Z,61.56
2022-08-16T00:40:53.628Z,61.13
2022-08-16T00:41:56.145Z,61.27
2022-08-16T00:42:58.108Z,61.52
2022-08-16T00:44:11.044Z,62.20
2022-08-16T00:45:35.570Z,62.26
2022-08-16T00:46:52.993Z,62.30
2022-08-16T00:48:30.506Z,62.30
2022-08-16T00:49:29.610Z,62.41
2022-08-16T00:50:43.870Z,62.56
2022-08-16T00:51:45.699Z,62.71
2022-08-16T00:52:50.883Z,62.85
2022-08-16T00:53:54.508Z,63.02
2022-08-16T00:54:56.207Z,62.75
2022-08-16T00:56:05.325Z,62.15
2022-08-16T00:57:08.111Z,61.74
2022-08-16T00:58:16.388Z,62.02
2022-08-16T00:59:52.865Z,62.63
2022-08-16T01:01:00.455Z,62.00
2022-08-16T01:02:30.389Z,62.05
2022-08-16T01:03:29.473Z,61.94
2022-08-16T01:04:32.851Z,61.58
2022-08-16T01:05:35.992Z,61.91
2022-08-16T01:06:48.937Z,61.75
2022-08-16T01:08:02.665Z,62.17
2022-08-16T01:09:24.397Z,62.39
2022-08-16T01:10:35.966Z,62.77
2022-08-16T01:11:53.686Z,62.68
2022-08-16T01:12:57.246Z,61.99
2022-08-16T01:14:29.821Z,61.97
2022-08-16T01:15:33.668Z,62.03
2022-08-16T01:16:35.737Z,61.13
2022-08-16T01:17:37.681Z,61.21
2022-08-16T01:18:46.206Z,60.50
2022-08-16T01:19:57.159Z,61.80
2022-08-16T01:21:33.576Z,62.14
2022-08-16T01:22:59.085Z,62.24
2022-08-16T01:24:04.145Z,61.74
2022-08-16T01:25:09.921Z,62.07
2022-08-16T01:26:34.552Z,61.44
2022-08-16T01:27:44.740Z,61.27
2022-08-16T01:28:48.089Z,61.46
2022-08-16T01:29:58.532Z,61.77
2022-08-16T01:31:05.217Z,61.80
2022-08-16T01:32:06.961Z,61.98
2022-08-16T01:33:15.060Z,61.57
2022-08-16T01:34:25.140Z,61.25
2022-08-16T01:36:00.619Z,61.81
2022-08-16T01:37:09.966Z,62.42
2022-08-16T01:38:40.168Z,62.36
2022-08-16T01:39:48.904Z,61.66
2022-08-16T01:40:54.463Z,61.84
2022-08-16T01:41:56.172Z,61.67
2022-08-16T01:43:00.537Z,62.67
2022-08-16T01:44:03.518Z,62.06
2022-08-16T01:45:06.047Z,61.07
2022-08-16T01:46:30.144Z,61.42
2022-08-16T01:47:49.377Z,62.04
2022-08-16T01:49:00.203Z,62.16
2022-08-16T01:50:42.342Z,62.04
2022-08-16T01:51:27.281Z,62.28
2022-08-16T01:52:30.547Z,62.11
2022-08-16T01:53:32.470Z,62.63
2022-08-16T01:54:37.444Z,62.46
2022-08-16T01:55:40.907Z,62.42
2022-08-16T01:56:42.852Z,62.34
2022-08-16T01:57:53.776Z,62.63
2022-08-16T01:59:00.742Z,62.83
2022-08-16T02:00:18.995Z,63.30
2022-08-16T02:01:21.519Z,63.32
2022-08-16T02:02:27.277Z,63.58
2022-08-16T02:03:30.601Z,63.44
2022-08-16T02:04:48.562Z,63.01
2022-08-16T02:05:56.059Z,63.21
2022-08-16T02:06:59.503Z,62.91
2022-08-16T02:08:02.940Z,63.18
2022-08-16T02:09:11.929Z,62.58
2022-08-16T02:10:15.156Z,62.79
2022-08-16T02:11:19.884Z,62.23
2022-08-16T02:12:49.640Z,62.46
2022-08-16T02:13:44.235Z,63.33
2022-08-16T02:14:45.974Z,63.27
2022-08-16T02:15:48.339Z,63.90
2022-08-16T02:16:52.584Z,63.68
2022-08-16T02:17:56.795Z,64.16
2022-08-16T02:18:59.398Z,63.54
2022-08-16T02:20:01.265Z,62.98
2022-08-16T02:21:04.849Z,63.33
2022-08-16T02:22:35.087Z,63.77
2022-08-16T02:23:29.613Z,63.04
2022-08-16T02:24:40.662Z,63.47
2022-08-16T02:25:51.213Z,63.63
2022-08-16T02:26:56.434Z,63.73
2022-08-16T02:27:59.629Z,64.07
2022-08-16T02:29:02.157Z,64.61
2022-08-16T02:30:06.488Z,64.58
2022-08-16T02:31:11.382Z,63.93
2022-08-16T02:32:50.795Z,63.60
2022-08-16T02:33:43.842Z,63.86
2022-08-16T02:34:50.721Z,64.00
2022-08-16T02:35:59.944Z,64.35
2022-08-16T02:37:02.229Z,64.04
2022-08-16T02:38:08.532Z,64.30
2022-08-16T02:39:14.806Z,64.27
2022-08-16T02:40:17.420Z,64.20
2022-08-16T02:41:19.902Z,64.47
2022-08-16T02:42:21.873Z,64.48
2022-08-16T02:43:27.532Z,65.26
2022-08-16T02:44:31.463Z,65.51
2022-08-16T02:45:33.978Z,65.50
2022-08-16T02:46:35.672Z,65.94
2022-08-16T02:48:01.856Z,65.78
2022-08-16T02:49:01.724Z,65.96
2022-08-16T02:50:55.260Z,65.18
2022-08-16T02:51:27.526Z,64.70
2022-08-16T02:52:29.678Z,64.32
2022-08-16T02:53:35.126Z,64.43
2022-08-16T02:54:37.591Z,64.88
2022-08-16T02:55:41.613Z,65.49
2022-08-16T02:56:43.500Z,65.62
2022-08-16T02:57:54.057Z,65.63
2022-08-16T02:58:56.731Z,65.40
2022-08-16T02:59:58.607Z,65.36
2022-08-16T03:01:03.381Z,65.41
2022-08-16T03:02:08.057Z,65.28
2022-08-16T03:03:10.999Z,64.96
2022-08-16T03:04:41.008Z,64.58
2022-08-16T03:05:41.405Z,64.91
2022-08-16T03:06:44.204Z,64.74
2022-08-16T03:07:50.624Z,64.32
2022-08-16T03:08:53.382Z,64.19
2022-08-16T03:09:55.160Z,64.37
2022-08-16T03:11:02.504Z,64.63
2022-08-16T03:12:05.643Z,64.94
2022-08-16T03:13:12.464Z,65.29
2022-08-16T03:14:21.162Z,65.79
2022-08-16T03:15:27.724Z,66.39
2022-08-16T03:16:37.924Z,66.74
2022-08-16T03:17:53.937Z,67.00
2022-08-16T03:18:56.393Z,67.74
2022-08-16T03:20:02.467Z,67.75
2022-08-16T03:21:05.074Z,67.88
2022-08-16T03:22:07.282Z,68.36
2022-08-16T03:23:09.007Z,68.50
2022-08-16T03:24:28.303Z,69.52
2022-08-16T03:25:44.062Z,68.28
2022-08-16T03:26:46.501Z,69.16
2022-08-16T03:27:48.267Z,69.07
2022-08-16T03:28:51.899Z,68.89
2022-08-16T03:29:54.310Z,67.92
2022-08-16T03:30:56.490Z,68.68
2022-08-16T03:32:01.957Z,67.83
2022-08-16T03:33:04.683Z,67.49
2022-08-16T03:34:09.123Z,68.63
2022-08-16T03:35:11.169Z,68.02
2022-08-16T03:36:30.138Z,67.61
2022-08-16T03:37:33.237Z,67.70
2022-08-16T03:38:55.032Z,68.31
2022-08-16T03:40:02.799Z,68.26
2022-08-16T03:41:14.071Z,67.78
2022-08-16T03:42:26.946Z,67.25
2022-08-16T03:43:51.135Z,67.34
2022-08-16T03:44:51.757Z,67.58
2022-08-16T03:46:05.053Z,66.63
2022-08-16T03:47:10.427Z,66.82
2022-08-16T03:48:15.209Z,66.36
2022-08-16T03:49:22.620Z,66.79
2022-08-16T03:50:26.158Z,67.48
2022-08-16T03:51:28.870Z,68.03
2022-08-16T03:52:31.650Z,67.67
2022-08-16T03:53:38.059Z,67.61
2022-08-16T03:54:53.736Z,67.66
2022-08-16T03:55:59.620Z,67.63
2022-08-16T03:57:01.765Z,67.87
2022-08-16T03:58:03.509Z,68.38
2022-08-16T03:59:06.722Z,68.10
2022-08-16T04:00:20.273Z,68.15
2022-08-16T04:01:35.403Z,68.06
2022-08-16T04:02:37.272Z,67.87
2022-08-16T04:03:42.129Z,67.58
2022-08-16T04:04:47.073Z,65.90
2022-08-16T04:05:51.286Z,63.64
2022-08-16T04:06:55.961Z,62.97
2022-08-16T04:07:57.645Z,63.97
2022-08-16T04:08:59.364Z,63.52
2022-08-16T04:10:36.429Z,63.83
2022-08-16T04:11:26.992Z,64.16
2022-08-16T04:12:54.778Z,64.03
2022-08-16T04:14:00.334Z,64.79
2022-08-16T04:15:13.537Z,64.58
2022-08-16T04:16:21.916Z,63.98
2022-08-16T04:17:29.714Z,62.36
2022-08-16T04:18:32.151Z,61.63
2022-08-16T04:19:35.680Z,63.00
2022-08-16T04:20:38.985Z,62.63
2022-08-16T04:21:45.883Z,62.87
2022-08-16T04:22:49.250Z,63.05
2022-08-16T04:23:51.470Z,61.70
2022-08-16T04:24:59.257Z,63.63
2022-08-16T04:26:02.075Z,60.90
2022-08-16T04:27:04.984Z,61.18
2022-08-16T04:28:29.284Z,60.33
2022-08-16T04:29:43.912Z,61.97
2022-08-16T04:30:50.531Z,60.85
2022-08-16T04:31:56.629Z,60.58
2022-08-16T04:32:59.811Z,60.95
2022-08-16T04:34:02.179Z,60.63
2022-08-16T04:35:16.345Z,58.48
2022-08-16T04:36:19.958Z,56.93
2022-08-16T04:37:22.227Z,58.74
2022-08-16T04:38:24.749Z,57.41
2022-08-16T04:39:37.084Z,54.90
2022-08-16T04:40:50.048Z,56.46
2022-08-16T04:41:56.823Z,56.15
2022-08-16T04:43:01.315Z,55.37
2022-08-16T04:44:32.492Z,55.87
2022-08-16T04:45:35.564Z,53.15
2022-08-16T04:47:01.420Z,52.98
2022-08-16T04:48:00.277Z,51.73
2022-08-16T04:49:03.471Z,52.79
2022-08-16T04:50:09.889Z,54.90
2022-08-16T04:51:12.694Z,53.78
2022-08-16T04:52:34.518Z,52.76
2022-08-16T04:53:36.716Z,54.01
2022-08-16T04:54:43.294Z,53.04
2022-08-16T04:55:45.081Z,50.99
2022-08-16T04:56:46.937Z,51.51
2022-08-16T04:57:53.798Z,50.09
2022-08-16T04:58:57.699Z,50.70
2022-08-16T05:00:30.645Z,51.46
2022-08-16T05:01:21.641Z,51.56
2022-08-16T05:02:41.989Z,49.22
2022-08-16T05:03:59.903Z,47.58
2022-08-16T05:05:03.988Z,48.61
2022-08-16T05:06:09.223Z,46.17
2022-08-16T05:07:14.983Z,47.36
2022-08-16T05:08:29.269Z,48.55
2022-08-16T05:09:36.517Z,46.68
2022-08-16T05:10:40.513Z,47.10
2022-08-16T05:11:42.258Z,47.12
2022-08-16T05:12:44.771Z,46.50
2022-08-16T05:13:47.964Z,45.21
2022-08-16T05:15:01.778Z,45.14
2022-08-16T05:16:05.148Z,44.02
2022-08-16T05:17:07.955Z,43.12
2022-08-16T05:18:15.805Z,42.69
2022-08-16T05:19:19.110Z,42.78
2022-08-16T05:20:45.085Z,42.77
2022-08-16T05:21:43.333Z,41.41
2022-08-16T05:22:45.237Z,42.52
2022-08-16T05:23:51.660Z,41.20
2022-08-16T05:25:00.581Z,41.57
2022-08-16T05:26:02.563Z,41.63
2022-08-16T05:27:11.376Z,40.59
2022-08-16T05:28:13.743Z,39.43
2022-08-16T05:29:15.511Z,41.62
2022-08-16T05:30:35.089Z,42.05
2022-08-16T05:31:48.426Z,41.55
2022-08-16T05:32:55.538Z,41.16
2022-08-16T05:33:59.770Z,40.95
2022-08-16T05:35:01.811Z,40.92
2022-08-16T05:36:04.613Z,39.90
2022-08-16T05:37:16.186Z,40.12
2022-08-16T05:38:32.717Z,38.66
2022-08-16T05:39:40.955Z,39.77
2022-08-16T05:40:43.118Z,37.93
2022-08-16T05:42:01.421Z,39.99
2022-08-16T05:43:03.508Z,39.79
2022-08-16T05:44:23.279Z,37.96
2022-08-16T05:45:26.628Z,39.31
2022-08-16T05:46:31.144Z,40.17
2022-08-16T05:47:33.187Z,39.75
2022-08-16T05:48:44.887Z,39.73
2022-08-16T05:49:57.265Z,40.19
2022-08-16T05:50:59.596Z,39.68
2022-08-16T05:52:01.454Z,39.59
2022-08-16T05:53:03.273Z,40.55
2022-08-16T05:54:05.087Z,40.66
2022-08-16T05:55:07.751Z,39.28
2022-08-16T05:56:11.307Z,38.76
2022-08-16T05:57:21.933Z,38.35
2022-08-16T05:58:32.830Z,38.19
2022-08-16T05:59:35.306Z,36.86
2022-08-16T06:00:38.571Z,35.05
2022-08-16T06:01:41.398Z,36.37
2022-08-16T06:02:43.878Z,37.10
2022-08-16T06:03:45.961Z,36.64
2022-08-16T06:04:49.672Z,36.39
2022-08-16T06:05:51.364Z,36.93
2022-08-16T06:06:57.031Z,36.66
2022-08-16T06:07:59.379Z,36.83
2022-08-16T06:09:01.137Z,35.82
2022-08-16T06:10:02.932Z,35.41
2022-08-16T06:11:11.312Z,35.57
2022-08-16T06:12:27.243Z,33.66
2022-08-16T06:13:32.482Z,31.81
2022-08-16T06:14:34.730Z,31.80
2022-08-16T06:15:37.979Z,31.54
2022-08-16T06:16:43.343Z,30.56
2022-08-16T06:17:46.216Z,30.74
2022-08-16T06:18:48.195Z,30.16
2022-08-16T06:19:52.325Z,28.50
2022-08-16T06:20:55.785Z,28.69
2022-08-16T06:21:57.859Z,28.29
2022-08-16T06:23:03.928Z,28.71
2022-08-16T06:24:54.217Z,27.83
2022-08-16T06:25:36.158Z,28.59
2022-08-16T06:26:44.596Z,27.62
2022-08-16T06:27:59.406Z,26.92
2022-08-16T06:29:03.036Z,27.76
2022-08-16T06:30:07.958Z,28.20
2022-08-16T06:31:12.273Z,26.98
2022-08-16T06:32:27.878Z,27.13
2022-08-16T06:33:30.371Z,27.17
2022-08-16T06:34:57.267Z,28.35
2022-08-16T06:36:04.347Z,27.00
2022-08-16T06:37:10.216Z,26.82
2022-08-16T06:38:32.611Z,27.46
2022-08-16T06:39:34.328Z,27.02
2022-08-16T06:40:36.314Z,27.63
2022-08-16T06:41:39.763Z,27.23
2022-08-16T06:42:47.706Z,28.38
2022-08-16T06:43:51.172Z,27.30
2022-08-16T06:44:53.079Z,27.10
2022-08-16T06:45:55.747Z,26.64
2022-08-16T06:46:57.566Z,27.78
2022-08-16T06:48:05.580Z,26.97
2022-08-16T06:49:10.865Z,26.64
2022-08-16T06:50:22.210Z,26.46
2022-08-16T06:51:45.691Z,25.29
2022-08-16T06:52:58.294Z,26.10
2022-08-16T06:54:14.222Z,26.14
2022-08-16T06:55:17.407Z,25.90
2022-08-16T06:56:19.738Z,25.39
2022-08-16T06:57:24.965Z,24.78
2022-08-16T06:58:31.951Z,25.44
2022-08-16T06:59:52.382Z,25.31
2022-08-16T07:00:55.657Z,25.09
2022-08-16T07:02:01.391Z,24.30
2022-08-16T07:03:04.001Z,25.23
2022-08-16T07:04:32.874Z,24.14
2022-08-16T07:05:41.606Z,25.40
2022-08-16T07:06:45.005Z,24.18
2022-08-16T07:07:50.955Z,24.83
2022-08-16T07:08:52.994Z,24.43
2022-08-16T07:09:55.153Z,24.37
2022-08-16T07:10:58.812Z,25.29
2022-08-16T07:12:05.460Z,24.07
2022-08-16T07:13:11.820Z,24.18
2022-08-16T07:14:25.028Z,24.22
2022-08-16T07:15:28.302Z,24.24
2022-08-16T07:16:30.452Z,23.91
2022-08-16T07:17:33.432Z,23.01
2022-08-16T07:18:36.832Z,24.58
2022-08-16T07:20:02.547Z,25.26
2022-08-16T07:21:02.507Z,24.99
2022-08-16T07:22:04.352Z,23.62
2022-08-16T07:23:13.269Z,23.35
2022-08-16T07:24:29.792Z,23.18
2022-08-16T07:25:32.510Z,22.24
2022-08-16T07:26:34.333Z,23.34
2022-08-16T07:27:37.238Z,23.68
2022-08-16T07:28:39.373Z,22.11
2022-08-16T07:29:42.098Z,22.83
2022-08-16T07:30:46.441Z,22.40
2022-08-16T07:31:49.214Z,23.19
2022-08-16T07:32:51.633Z,22.06
2022-08-16T07:33:55.090Z,21.63
2022-08-16T07:34:56.979Z,22.83
2022-08-16T07:36:00.122Z,22.35
2022-08-16T07:37:10.307Z,23.32
2022-08-16T07:38:12.362Z,22.21
2022-08-16T07:39:15.282Z,22.40
2022-08-16T07:40:17.840Z,21.23
2022-08-16T07:41:19.678Z,22.49
2022-08-16T07:42:28.245Z,22.85
2022-08-16T07:43:40.526Z,21.37
2022-08-16T07:44:50.388Z,22.04
2022-08-16T07:45:53.433Z,21.03
2022-08-16T07:46:56.611Z,21.71
2022-08-16T07:47:58.323Z,22.77
2022-08-16T07:49:02.416Z,21.61
2022-08-16T07:50:07.699Z,21.52
2022-08-16T07:51:09.732Z,21.00
2022-08-16T07:52:18.969Z,22.29
2022-08-16T07:53:21.999Z,20.87
2022-08-16T07:54:31.969Z,21.30
2022-08-16T07:55:45.624Z,21.96
2022-08-16T07:56:49.733Z,20.94
2022-08-16T07:58:00.957Z,21.27
2022-08-16T07:59:07.063Z,20.66
2022-08-16T08:00:18.761Z,22.50
2022-08-16T08:01:24.806Z,20.87
2022-08-16T08:02:30.366Z,21.14
2022-08-16T08:03:35.974Z,21.34
2022-08-16T08:04:42.140Z,21.95
2022-08-16T08:05:44.106Z,20.64
2022-08-16T08:06:50.983Z,22.55
2022-08-16T08:07:53.778Z,22.57
2022-08-16T08:09:00.397Z,21.36
2022-08-16T08:10:03.938Z,21.68
2022-08-16T08:11:08.866Z,21.43
2022-08-16T08:12:32.368Z,21.92
2022-08-16T08:13:41.720Z,20.48
2022-08-16T08:14:44.527Z,21.16
2022-08-16T08:15:52.435Z,20.94
2022-08-16T08:16:54.597Z,22.00
2022-08-16T08:17:56.709Z,20.53
2022-08-16T08:19:18.418Z,21.33
2022-08-16T08:20:28.482Z,20.74
2022-08-16T08:21:59.979Z,21.07
2022-08-16T08:23:01.148Z,21.48
2022-08-16T08:24:03.438Z,20.94
2022-08-16T08:25:12.946Z,20.42
2022-08-16T08:26:17.782Z,20.82
2022-08-16T08:27:22.966Z,21.24
2022-08-16T08:28:25.567Z,20.09
2022-08-16T08:29:37.254Z,20.02
2022-08-16T08:30:51.723Z,20.10
2022-08-16T08:32:01.621Z,21.74
2022-08-16T08:33:03.565Z,22.09
2022-08-16T08:34:07.365Z,20.99
2022-08-16T08:35:09.657Z,20.97
2022-08-16T08:36:22.191Z,21.06
2022-08-16T08:37:24.260Z,20.99
2022-08-16T08:38:43.747Z,21.11
2022-08-16T08:39:54.758Z,20.32
2022-08-16T08:40:57.252Z,20.82
2022-08-16T08:42:03.675Z,21.69
2022-08-16T08:43:12.051Z,21.18
2022-08-16T08:44:29.272Z,20.92
2022-08-16T08:45:52.482Z,20.33
2022-08-16T08:47:00.703Z,21.60
2022-08-16T08:48:03.650Z,20.90
2022-08-16T08:49:08.844Z,20.36
2022-08-16T08:50:11.260Z,20.79
2022-08-16T08:51:35.833Z,20.90
2022-08-16T08:52:40.737Z,22.20
2022-08-16T08:53:43.321Z,22.86
2022-08-16T08:54:45.047Z,20.88
2022-08-16T08:55:59.284Z,21.65
2022-08-16T08:57:01.308Z,19.88
2022-08-16T08:58:03.928Z,20.34
2022-08-16T08:59:13.091Z,19.82
2022-08-16T09:00:21.616Z,20.11
2022-08-16T09:01:31.382Z,19.45
2022-08-16T09:02:33.831Z,20.18
2022-08-16T09:03:39.540Z,20.01
2022-08-16T09:04:44.681Z,21.01
2022-08-16T09:05:51.826Z,19.85
2022-08-16T09:06:54.030Z,20.30
2022-08-16T09:08:01.447Z,20.92
2022-08-16T09:09:07.726Z,18.55
2022-08-16T09:10:20.900Z,18.81
2022-08-16T09:11:23.283Z,19.23
2022-08-16T09:12:42.733Z,20.01
2022-08-16T09:13:49.586Z,19.21
2022-08-16T09:14:52.927Z,18.41
2022-08-16T09:15:55.889Z,19.10
2022-08-16T09:17:02.881Z,19.08
2022-08-16T09:18:24.811Z,19.45
2022-08-16T09:19:32.325Z,19.87
2022-08-16T09:20:35.634Z,19.65
2022-08-16T09:21:57.820Z,21.12
2022-08-16T09:23:02.856Z,22.19
2022-08-16T09:24:10.034Z,21.04
2022-08-16T09:25:14.724Z,22.74
2022-08-16T09:26:44.954Z,21.56
2022-08-16T09:27:46.771Z,19.85
2022-08-16T09:29:15.931Z,19.73
2022-08-16T09:30:34.706Z,20.20
2022-08-16T09:31:41.951Z,19.89
2022-08-16T09:32:46.978Z,19.87
2022-08-16T09:33:51.994Z,20.59
2022-08-16T09:34:53.982Z,20.73
2022-08-16T09:36:01.377Z,22.52
2022-08-16T09:37:03.252Z,21.34
2022-08-16T09:38:31.977Z,21.01
2022-08-16T09:39:41.294Z,22.32
2022-08-16T09:40:47.306Z,21.69
2022-08-16T09:41:53.778Z,20.89
2022-08-16T09:42:59.146Z,20.31
2022-08-16T09:45:12.315Z,20.04
2022-08-16T09:45:25.859Z,20.89
2022-08-16T09:46:45.507Z,20.13
2022-08-16T09:47:56.591Z,21.53
2022-08-16T09:49:03.732Z,21.18
2022-08-16T09:50:11.961Z,19.89
2022-08-16T09:51:14.378Z,19.48
2022-08-16T09:52:16.332Z,19.77
2022-08-16T09:53:23.159Z,20.37
2022-08-16T09:54:32.727Z,20.19
2022-08-16T09:55:44.751Z,19.97
2022-08-16T09:56:51.338Z,19.04
2022-08-16T09:57:55.280Z,19.78
2022-08-16T09:59:05.525Z,20.61
2022-08-16T10:00:42.605Z,19.19
2022-08-16T10:01:34.707Z,19.20
2022-08-16T10:02:44.327Z,19.91
2022-08-16T10:04:01.548Z,19.28
2022-08-16T10:05:05.467Z,18.36
2022-08-16T10:06:07.259Z,19.64
2022-08-16T10:07:15.942Z,17.95
2022-08-16T10:08:25.958Z,18.19
2022-08-16T10:09:53.897Z,17.61
2022-08-16T10:11:09.797Z,18.66
2022-08-16T10:12:30.236Z,19.50
2022-08-16T10:13:34.433Z,18.27
2022-08-16T10:14:36.765Z,18.10
2022-08-16T10:15:41.641Z,18.02
2022-08-16T10:16:48.816Z,17.38
2022-08-16T10:17:59.976Z,17.30
2022-08-16T10:19:06.760Z,18.07
2022-08-16T10:20:18.538Z,18.21
2022-08-16T10:21:20.889Z,18.66
2022-08-16T10:22:24.520Z,19.59
2022-08-16T10:23:26.303Z,17.84
2022-08-16T10:24:30.505Z,18.08
2022-08-16T10:27:17.537Z,17.82
2022-08-16T10:27:17.574Z,17.93
2022-08-16T10:28:28.932Z,17.87
2022-08-16T10:30:00.185Z,18.37
2022-08-16T10:30:56.536Z,18.47
2022-08-16T10:32:00.769Z,18.99
2022-08-16T10:33:05.796Z,18.39
2022-08-16T10:34:31.203Z,18.44
2022-08-16T10:35:32.550Z,18.18
2022-08-16T10:36:38.865Z,18.20
2022-08-16T10:37:41.472Z,18.02
2022-08-16T10:38:43.857Z,18.98
2022-08-16T10:39:45.614Z,18.58
2022-08-16T10:40:48.184Z,18.38
2022-08-16T10:41:50.094Z,19.02
2022-08-16T10:42:51.881Z,19.01
2022-08-16T10:43:53.649Z,19.10
2022-08-16T10:44:55.346Z,18.96
2022-08-16T10:46:00.954Z,19.07
2022-08-16T10:47:03.244Z,19.11
2022-08-16T10:48:28.017Z,18.34
2022-08-16T10:49:29.665Z,18.69
2022-08-16T10:50:32.760Z,21.04
2022-08-16T10:52:02.503Z,19.51
2022-08-16T10:52:59.078Z,19.99
2022-08-16T10:54:02.503Z,19.54
2022-08-16T10:56:52.318Z,20.31
2022-08-16T10:57:55.325Z,18.59
2022-08-16T11:00:22.631Z,18.55
2022-08-16T11:01:43.339Z,18.91
2022-08-16T11:02:57.880Z,20.00
2022-08-16T11:04:02.992Z,18.69
2022-08-16T11:05:24.833Z,18.54
2022-08-16T11:06:28.688Z,19.06
2022-08-16T11:07:52.642Z,18.59
2022-08-16T11:09:21.004Z,18.80
2022-08-16T11:11:05.272Z,20.41
2022-08-16T11:12:13.287Z,19.59
2022-08-16T11:14:24.600Z,18.95
2022-08-16T11:15:26.902Z,19.28
2022-08-16T11:18:48.842Z,19.32
2022-08-16T11:19:15.309Z,18.70
2022-08-16T11:23:06.061Z,18.82
2022-08-16T11:24:40.015Z,18.72
2022-08-16T11:28:36.483Z,18.19
2022-08-16T11:29:37.484Z,17.91
2022-08-16T11:30:39.622Z,18.50
2022-08-16T11:31:45.393Z,18.89
2022-08-16T11:32:48.118Z,19.56
2022-08-16T11:33:52.499Z,18.38
2022-08-16T11:35:10.189Z,18.97
2022-08-16T11:36:25.088Z,18.72
2022-08-16T11:37:34.247Z,18.84
2022-08-16T11:38:57.647Z,19.29
2022-08-16T11:40:00.608Z,18.70
2022-08-16T11:41:03.607Z,19.20
2022-08-16T11:42:07.747Z,18.51
2022-08-16T11:43:30.682Z,19.59
2022-08-16T11:44:52.226Z,19.35
2022-08-16T11:45:56.906Z,20.70
2022-08-16T11:46:59.584Z,20.02
2022-08-16T11:48:05.227Z,20.41
2022-08-16T11:49:12.751Z,21.11
2022-08-16T11:50:16.800Z,21.13
2022-08-16T11:51:18.893Z,21.29
2022-08-16T11:52:21.830Z,21.50
2022-08-16T11:53:24.899Z,20.85
2022-08-16T11:54:35.773Z,21.25
2022-08-16T11:55:39.369Z,21.63
2022-08-16T11:56:53.194Z,23.26
2022-08-16T11:58:00.513Z,21.34
2022-08-16T11:59:02.277Z,21.48
2022-08-16T12:00:08.263Z,21.22
2022-08-16T12:01:54.729Z,21.02
2022-08-16T12:02:51.780Z,21.03
2022-08-16T12:03:53.521Z,21.74
2022-08-16T12:04:55.971Z,21.16
2022-08-16T12:05:59.292Z,20.96
2022-08-16T12:07:02.929Z,21.30
2022-08-16T12:08:06.800Z,21.39
2022-08-16T12:09:08.608Z,21.38
2022-08-16T12:10:17.201Z,21.19
2022-08-16T12:11:19.681Z,21.40
2022-08-16T12:12:24.182Z,22.52
2022-08-16T12:13:26.445Z,21.61
2022-08-16T12:14:29.973Z,20.85
2022-08-16T12:15:37.941Z,21.32
2022-08-16T12:16:40.244Z,20.47
2022-08-16T12:17:50.839Z,20.87
2022-08-16T12:18:53.185Z,19.42
2022-08-16T12:19:54.931Z,19.88
2022-08-16T12:20:58.353Z,20.41
2022-08-16T12:22:05.334Z,20.24
2022-08-16T12:23:08.178Z,20.27
2022-08-16T12:24:10.121Z,20.18
2022-08-16T12:25:16.602Z,20.14
2022-08-16T12:26:18.452Z,21.68
2022-08-16T12:27:23.246Z,20.15
2022-08-16T12:28:37.003Z,20.78
2022-08-16T12:29:46.986Z,20.78
2022-08-16T12:30:48.766Z,20.58
2022-08-16T12:32:00.505Z,20.07
2022-08-16T12:33:04.981Z,21.55
2022-08-16T12:34:09.501Z,20.80
2022-08-16T12:35:22.692Z,22.66
2022-08-16T12:36:26.241Z,22.25
2022-08-16T12:37:31.990Z,21.21
2022-08-16T12:38:41.224Z,21.88
2022-08-16T12:39:52.149Z,23.52
2022-08-16T12:40:55.617Z,21.95
2022-08-16T12:41:59.259Z,22.71
2022-08-16T12:43:06.567Z,20.98
2022-08-16T12:44:08.653Z,20.98
2022-08-16T12:45:18.044Z,21.42
2022-08-16T12:46:21.313Z,21.08
2022-08-16T12:47:42.255Z,21.64
2022-08-16T12:48:58.897Z,21.75
2022-08-16T12:50:01.947Z,22.04
2022-08-16T12:51:19.999Z,21.65
2022-08-16T12:52:33.778Z,21.41
2022-08-16T12:53:39.674Z,21.41
2022-08-16T12:54:41.861Z,23.31
2022-08-16T12:55:44.961Z,21.11
2022-08-16T12:56:47.154Z,20.54
2022-08-16T12:57:58.057Z,22.39
2022-08-16T12:59:02.865Z,23.41
2022-08-16T13:00:28.698Z,22.60
2022-08-16T13:01:36.630Z,21.34
2022-08-16T13:02:38.796Z,20.91
2022-08-16T13:03:41.549Z,20.34
2022-08-16T13:04:43.365Z,20.52
2022-08-16T13:05:53.603Z,21.44
2022-08-16T13:06:59.095Z,21.02
2022-08-16T13:08:01.080Z,21.38
2022-08-16T13:09:19.411Z,20.75
2022-08-16T13:10:37.224Z,21.05
2022-08-16T13:11:55.138Z,20.38
2022-08-16T13:12:59.806Z,20.10
2022-08-16T13:14:01.912Z,20.61
2022-08-16T13:15:10.965Z,21.29
2022-08-16T13:16:20.117Z,21.04
2022-08-16T13:17:26.294Z,22.44
2022-08-16T13:18:34.609Z,23.01
2022-08-16T13:20:06.507Z,21.87
2022-08-16T13:20:59.171Z,22.45
2022-08-16T13:22:00.882Z,21.82
2022-08-16T13:23:08.600Z,22.20
2022-08-16T13:24:11.204Z,22.41
2022-08-16T13:25:20.931Z,22.36
2022-08-16T13:26:26.173Z,22.76
2022-08-16T13:28:14.832Z,22.48
2022-08-16T13:28:50.289Z,23.63
2022-08-16T13:29:57.492Z,22.01
2022-08-16T13:30:59.582Z,23.40
2022-08-16T13:32:01.509Z,22.33
2022-08-16T13:33:11.173Z,22.71
2022-08-16T13:34:14.322Z,23.75
2022-08-16T13:35:21.914Z,25.47
2022-08-16T13:36:47.648Z,23.90
2022-08-16T13:37:45.303Z,25.11
2022-08-16T13:38:47.213Z,24.01
2022-08-16T13:39:51.188Z,24.08
2022-08-16T13:40:56.181Z,24.90
2022-08-16T13:42:01.717Z,24.16
2022-08-16T13:43:03.708Z,23.89
2022-08-16T13:44:09.405Z,22.73
2022-08-16T13:45:15.683Z,23.81
2022-08-16T13:46:17.747Z,23.18
2022-08-16T13:47:19.584Z,23.20
2022-08-16T13:48:24.974Z,23.15
2022-08-16T13:49:27.214Z,23.40
2022-08-16T13:50:51.283Z,24.18
2022-08-16T13:51:53.993Z,22.88
2022-08-16T13:52:56.541Z,24.69
2022-08-16T13:54:03.861Z,22.71
2022-08-16T13:55:06.490Z,21.46
2022-08-16T13:56:25.009Z,21.87
2022-08-16T13:58:26.807Z,21.89
2022-08-16T13:58:54.082Z,22.71
2022-08-16T13:59:57.858Z,21.23
2022-08-16T14:01:00.487Z,21.78
2022-08-16T14:02:06.855Z,21.74
2022-08-16T14:03:09.426Z,21.36
2022-08-16T14:04:18.981Z,22.81
2022-08-16T14:05:25.239Z,22.98
2022-08-16T14:06:26.946Z,21.23
2022-08-16T14:07:30.495Z,22.60
2022-08-16T14:08:32.369Z,20.93
2022-08-16T14:09:36.564Z,21.73
2022-08-16T14:10:38.713Z,21.41
2022-08-16T14:11:40.437Z,20.77
2022-08-16T14:12:42.904Z,21.12
2022-08-16T14:13:44.971Z,20.90
2022-08-16T14:14:48.275Z,21.67
2022-08-16T14:15:50.144Z,21.68
2022-08-16T14:16:51.902Z,20.56
2022-08-16T14:18:19.916Z,21.24
2022-08-16T14:19:22.348Z,20.92
2022-08-16T14:20:25.750Z,22.17
2022-08-16T14:21:27.493Z,21.89
2022-08-16T14:22:42.435Z,22.94
2022-08-16T14:23:44.587Z,22.35
2022-08-16T14:24:48.898Z,22.36
2022-08-16T14:25:54.075Z,21.94
2022-08-16T14:26:56.214Z,21.96
2022-08-16T14:27:58.673Z,21.23
2022-08-16T14:29:03.771Z,21.68
2022-08-16T14:30:09.952Z,20.86
2022-08-16T14:31:11.736Z,20.08
2022-08-16T14:32:26.993Z,19.77
2022-08-16T14:33:35.833Z,20.20
2022-08-16T14:34:37.709Z,20.66
2022-08-16T14:35:50.130Z,21.37
2022-08-16T14:36:53.073Z,21.42
2022-08-16T14:37:56.946Z,21.76
2022-08-16T14:39:00.492Z,21.51
2022-08-16T14:40:03.321Z,21.77
2022-08-16T14:41:10.183Z,21.70
2022-08-16T14:42:18.356Z,22.45